createdAt,value
2023-04-18T00:03:25.522Z,9.20
2023-04-18T00:08:38.093Z,9.10
2023-04-18T00:13:43.909Z,9.10
2023-04-18T00:18:57.366Z,9.00
2023-04-18T00:23:59.539Z,8.90
2023-04-18T00:29:05.129Z,8.90
2023-04-18T00:34:18.450Z,8.90
2023-04-18T00:39:20.941Z,8.80
2023-04-18T00:44:27.334Z,8.70
2023-04-18T00:49:31.264Z,8.60
2023-04-18T00:54:44.295Z,8.60
2023-04-18T00:59:51.576Z,8.40
2023-04-18T01:04:55.553Z,8.40
2023-04-18T01:10:06.527Z,8.40
2023-04-18T01:15:09.215Z,8.30
2023-04-18T01:20:14.835Z,8.20
2023-04-18T01:25:22.959Z,8.10
2023-04-18T01:30:25.026Z,8.10
2023-04-18T01:35:27.310Z,8.00
2023-04-18T01:40:31.211Z,7.90
2023-04-18T01:45:33.321Z,8.00
2023-04-18T01:50:37.072Z,7.90
2023-04-18T01:55:39.350Z,7.90
2023-04-18T02:00:41.626Z,7.80
2023-04-18T02:05:43.715Z,7.70
2023-04-18T02:10:45.916Z,7.80
2023-04-18T02:15:50.104Z,7.60
2023-04-18T02:20:53.322Z,7.60
2023-04-18T02:25:55.594Z,7.60
2023-04-18T02:31:14.780Z,7.60
2023-04-18T02:36:22.513Z,7.50
2023-04-18T02:42:08.199Z,7.40
2023-04-18T02:47:21.789Z,7.40
2023-04-18T02:52:33.981Z,7.30
2023-04-18T02:57:41.495Z,7.20
2023-04-18T03:02:48.793Z,7.10
2023-04-18T03:08:06.611Z,7.10
2023-04-18T03:13:11.573Z,7.00
2023-04-18T03:18:13.831Z,6.90
2023-04-18T03:24:03.105Z,6.90
2023-04-18T04:12:23.607Z,6.40
2023-04-18T04:17:54.735Z,6.30
2023-04-18T04:36:33.719Z,6.20
2023-04-18T04:41:37.640Z,6.10
2023-04-18T04:46:40.406Z,6.10
2023-04-18T04:51:43.001Z,6.10
2023-04-18T04:56:44.937Z,6.10
2023-04-18T05:01:47.100Z,6.10
2023-04-18T05:06:48.989Z,6.00
2023-04-18T05:11:50.865Z,6.00
2023-04-18T05:16:52.761Z,6.00
2023-04-18T05:21:54.830Z,6.00
2023-04-18T05:26:57.118Z,6.00
2023-04-18T05:32:01.741Z,6.00
2023-04-18T05:37:03.650Z,6.00
2023-04-18T05:42:05.833Z,6.00
2023-04-18T05:47:07.795Z,6.00
2023-04-18T05:52:09.638Z,6.10
2023-04-18T05:57:11.419Z,6.20
2023-04-18T06:02:13.700Z,6.20
2023-04-18T06:07:15.796Z,6.30
2023-04-18T06:12:17.611Z,6.40
2023-04-18T06:17:19.429Z,6.50
2023-04-18T06:22:21.213Z,6.60
2023-04-18T06:27:31.058Z,6.80
2023-04-18T06:32:33.806Z,6.90
2023-04-18T06:37:35.848Z,7.00
2023-04-18T06:42:38.148Z,7.10
2023-04-18T06:47:41.761Z,7.20
2023-04-18T06:52:46.435Z,7.30
2023-04-18T06:57:48.451Z,7.30
2023-04-18T07:02:50.604Z,7.30
2023-04-18T07:07:52.558Z,7.40
2023-04-18T07:12:54.416Z,7.50
2023-04-18T07:17:57.050Z,7.70
2023-04-18T07:22:59.592Z,7.80
2023-04-18T07:28:01.522Z,8.00
2023-04-18T07:33:03.430Z,8.20
2023-04-18T07:38:05.603Z,8.30
2023-04-18T07:43:07.448Z,8.40
2023-04-18T07:48:09.378Z,8.50
2023-04-18T07:53:11.336Z,8.60
2023-04-18T07:58:13.287Z,8.60
2023-04-18T08:03:16.267Z,8.60
2023-04-18T08:08:18.460Z,8.70
2023-04-18T08:13:20.762Z,8.80
2023-04-18T08:18:23.221Z,9.00
2023-04-18T08:23:25.273Z,9.10
2023-04-18T08:28:27.423Z,9.20
2023-04-18T08:33:29.747Z,9.30
2023-04-18T08:38:31.623Z,9.30
2023-04-18T08:43:33.472Z,9.30
2023-04-18T08:48:35.288Z,9.50
2023-04-18T08:53:39.639Z,9.60
2023-04-18T08:58:41.576Z,9.60
2023-04-18T09:03:44.224Z,9.60
2023-04-18T09:09:00.376Z,9.70
2023-04-18T09:14:02.554Z,9.70
2023-04-18T09:19:13.258Z,9.80
2023-04-18T09:24:24.020Z,9.90
2023-04-18T09:29:43.493Z,10.10
2023-04-18T09:34:45.734Z,10.40
2023-04-18T09:39:47.608Z,10.60
2023-04-18T09:44:59.852Z,10.90
2023-04-18T09:50:05.783Z,11.10
2023-04-18T09:55:09.850Z,11.20
2023-04-18T10:00:25.359Z,11.50
2023-04-18T10:05:31.783Z,11.50
2023-04-18T10:10:33.681Z,11.50
2023-04-18T10:15:36.057Z,11.50
2023-04-18T10:20:41.227Z,11.40
2023-04-18T10:25:50.269Z,11.40
2023-04-18T10:30:57.905Z,11.40
2023-04-18T10:36:00.796Z,11.40
2023-04-18T10:41:27.996Z,11.50
2023-04-18T10:46:32.846Z,11.50
2023-04-18T10:51:34.963Z,11.70
2023-04-18T10:56:37.229Z,11.70
2023-04-18T11:01:40.523Z,11.70
2023-04-18T11:06:55.043Z,11.70
2023-04-18T11:12:11.024Z,11.70
2023-04-18T11:17:20.898Z,11.70
2023-04-18T11:22:22.833Z,11.70
2023-04-18T11:27:25.808Z,11.70
2023-04-18T11:32:27.902Z,11.70
2023-04-18T11:37:30.042Z,11.80
2023-04-18T11:42:35.056Z,11.80
2023-04-18T11:47:36.990Z,11.80
2023-04-18T11:52:41.180Z,11.90
2023-04-18T11:57:56.114Z,11.90
2023-04-18T12:02:59.435Z,11.90
2023-04-18T12:08:19.954Z,11.90
2023-04-18T12:13:26.934Z,11.90
2023-04-18T12:18:30.045Z,11.70
2023-04-18T12:23:34.344Z,11.80
2023-04-18T12:28:36.189Z,11.80
2023-04-18T12:33:37.997Z,11.90
2023-04-18T12:38:39.932Z,12.00
2023-04-18T12:43:41.875Z,12.00
2023-04-18T12:48:43.816Z,12.20
2023-04-18T12:53:45.832Z,12.30
2023-04-18T12:58:47.722Z,12.40
2023-04-18T13:03:59.915Z,12.40
2023-04-18T13:09:11.084Z,12.50
2023-04-18T13:14:13.127Z,13.10
2023-04-18T13:19:15.333Z,13.20
2023-04-18T13:24:17.452Z,12.80
2023-04-18T13:29:19.320Z,12.50
2023-04-18T13:34:21.189Z,12.60
2023-04-18T13:39:24.814Z,12.60
2023-04-18T13:44:26.857Z,12.50
2023-04-18T13:49:28.879Z,12.50
2023-04-18T13:54:31.820Z,12.60
2023-04-18T13:59:33.656Z,13.50
2023-04-18T14:04:36.044Z,13.70
2023-04-18T14:09:37.969Z,13.70
2023-04-18T14:14:39.821Z,14.10
2023-04-18T14:19:41.724Z,14.00
2023-04-18T14:24:43.566Z,13.70
2023-04-18T14:29:45.530Z,13.40
2023-04-18T14:34:47.509Z,13.20
2023-04-18T14:39:49.399Z,13.20
2023-04-18T14:44:51.253Z,13.10
2023-04-18T14:49:53.109Z,13.00
2023-04-18T14:54:55.464Z,13.00
2023-04-18T14:59:57.416Z,13.80
2023-04-18T15:04:59.604Z,14.00
2023-04-18T15:10:01.660Z,13.90
2023-04-18T15:15:03.908Z,14.50
2023-04-18T15:20:09.640Z,14.80
2023-04-18T15:25:16.260Z,15.20
2023-04-18T15:30:18.189Z,15.60
2023-04-18T15:35:20.337Z,15.50
2023-04-18T15:40:22.195Z,15.60
2023-04-18T15:45:24.134Z,15.30
2023-04-18T15:50:26.136Z,14.90
2023-04-18T15:55:28.063Z,15.10
2023-04-18T16:00:31.992Z,15.30
2023-04-18T16:05:33.888Z,15.40
2023-04-18T16:10:36.757Z,15.40
2023-04-18T16:15:42.188Z,15.30
2023-04-18T16:20:44.066Z,15.20
2023-04-18T16:25:46.113Z,14.90
2023-04-18T16:30:48.570Z,14.60
2023-04-18T16:35:50.474Z,14.50
2023-04-18T16:40:52.323Z,14.50
2023-04-18T16:45:57.738Z,14.50
2023-04-18T16:50:59.559Z,14.30
2023-04-18T16:56:01.451Z,14.20
2023-04-18T17:01:03.577Z,14.10
2023-04-18T17:06:05.871Z,14.10
2023-04-18T17:11:07.791Z,14.10
2023-04-18T17:16:09.685Z,14.10
2023-04-18T17:21:12.597Z,14.10
2023-04-18T17:26:14.454Z,14.00
2023-04-18T17:31:16.662Z,13.80
2023-04-18T17:36:18.618Z,13.70
2023-04-18T17:41:21.733Z,13.60
2023-04-18T17:46:23.960Z,13.50
2023-04-18T17:51:27.282Z,13.50
2023-04-18T17:56:30.491Z,13.40
2023-04-18T18:01:32.939Z,13.30
2023-04-18T18:06:34.987Z,13.20
2023-04-18T18:11:36.817Z,13.10
2023-04-18T18:16:39.737Z,13.00
2023-04-18T18:21:41.750Z,13.00
2023-04-18T18:26:43.593Z,12.90
2023-04-18T18:31:45.609Z,12.80
2023-04-18T18:36:47.547Z,12.70
2023-04-18T18:41:49.510Z,12.60
2023-04-18T18:46:51.794Z,12.50
2023-04-18T18:51:53.773Z,12.40
2023-04-18T18:56:55.717Z,12.40
2023-04-18T19:01:57.689Z,12.30
2023-04-18T19:06:59.835Z,12.20
2023-04-18T19:12:01.666Z,12.10
2023-04-18T19:17:03.662Z,12.00
2023-04-18T19:22:06.654Z,12.00
2023-04-18T19:27:08.589Z,11.90
2023-04-18T19:32:10.683Z,11.80
2023-04-18T19:37:12.628Z,11.80
2023-04-18T19:42:14.547Z,11.70
2023-04-18T19:47:16.401Z,11.60
2023-04-18T19:52:18.490Z,11.60
2023-04-18T19:57:20.470Z,11.50
2023-04-18T20:02:22.592Z,11.40
2023-04-18T20:07:26.261Z,11.40
2023-04-18T20:12:28.500Z,11.30
2023-04-18T20:17:30.653Z,11.30
2023-04-18T20:22:32.749Z,11.20
2023-04-18T20:27:34.903Z,11.20
2023-04-18T20:32:38.891Z,11.10
2023-04-18T20:37:42.208Z,11.10
2023-04-18T20:42:51.035Z,11.10
2023-04-18T20:47:55.641Z,11.00
2023-04-18T20:53:00.803Z,10.90
2023-04-18T20:58:02.817Z,10.90
2023-04-18T21:03:04.925Z,10.80
2023-04-18T21:08:06.849Z,10.90
